Elisalex Schulte — 9V9154 — position and weather

sailwx.info

Track history (hours):
 
Tides and Currents Weather Stations Pressure Air Temp Water Temp Dewpoint Dewpoint Depression Visibility Wind Speed Wind Dir Waves Ship Positions

Elisalex Schulte

Last reported at 2017-Dec-10 23:56 UTC. Time now 2017-Dec-11 00:24 UTC.
Position N 53°29' W 003°27'.

Length 144 m; draft 7.7 m.

Type: Tanker. MMSI: 563052000.

Date/timePositionNaut miles runAvg speedWind from/ knotsBaromVisibWave heightAir tempDewpointWater temp
2017-Dec-10 23:56N 53°29' W 003°27'0 0.0
2017-Dec-10 23:26N 53°29' W 003°27'0 0.0
2017-Dec-10 22:59N 53°29' W 003°27'0 0.0
2017-Dec-10 22:29N 53°29' W 003°27'0 0.0
2017-Dec-10 21:59N 53°29' W 003°27'2 3.6
2017-Dec-10 21:30N 53°30' W 003°30'3 6.1
2017-Dec-10 21:00N 53°31' W 003°35'3 5.5
2017-Dec-10 20:30N 53°31' W 003°40'4 8.4
2017-Dec-10 20:00N 53°31' W 003°47'611.1
2017-Dec-10 19:29N 53°30' W 003°56'217 8.1
2017-Dec-09 16:48N 49°54' W 004°13'1913.2
2017-Dec-09 15:23N 49°56' W 003°45'613.2
2017-Dec-09 14:56N 49°56' W 003°36'712.8
2017-Dec-09 14:23N 49°58' W 003°25'512.3
2017-Dec-09 13:56N 49°58' W 003°16'612.5
2017-Dec-09 13:29N 49°59' W 003°07'611.7
2017-Dec-09 13:00N 49°60' W 002°59'611.2
2017-Dec-09 12:30N 50°01' W 002°50'610.7
2017-Dec-09 11:59N 50°02' W 002°42'810.3
2017-Dec-09 11:15N 50°05' W 002°31'410.3
2017-Dec-09 10:51N 50°06' W 002°24'610.5
2017-Dec-09 10:14N 50°07' W 002°15'9113.4
2017-Dec-09 03:27N 50°32' E 000°02'1111.8
2017-Dec-09 02:31N 50°34' E 000°19'311.3
2017-Dec-09 02:15N 50°35' E 000°23'311.0
2017-Dec-09 02:01N 50°36' E 000°27'511.0
2017-Dec-09 01:31N 50°37' E 000°36'611.2
2017-Dec-09 01:01N 50°41' E 000°43'611.7
2017-Dec-09 00:30N 50°45' E 000°50'612.2
2017-Dec-09 00:01N 50°48' E 000°57'813.3
2017-Dec-08 23:25N 50°53' E 001°07'614.2
2017-Dec-08 23:00N 50°57' E 001°14'815.0
2017-Dec-08 22:30N 51°02' E 001°23'815.6
2017-Dec-08 22:00N 51°07' E 001°33'815.0
2017-Dec-08 21:30N 51°12' E 001°42'713.9
2017-Dec-08 21:00N 51°17' E 001°49'713.1
2017-Dec-08 20:30N 51°23' E 001°54'612.2
2017-Dec-08 20:00N 51°28' E 001°60'611.5
2017-Dec-08 19:30N 51°32' E 002°06'510.9
2017-Dec-08 19:00N 51°36' E 002°12'9211.2
2017-Dec-08 10:47N 52°59' E 003°17'312.3
2017-Dec-08 10:30N 53°02' E 003°19'612.1
2017-Dec-08 09:59N 53°08' E 003°22'611.8
2017-Dec-08 09:30N 53°14' E 003°25'4010.9
2017-Dec-08 05:52N 53°49' E 003°54'1210.9
2017-Dec-08 04:43N 53°57' E 004°11'211.1
2017-Dec-08 04:30N 53°58' E 004°15'611.0
2017-Dec-08 03:59N 54°01' E 004°22'8 9.4
2017-Dec-08 03:06N 54°03' E 004°36'134 8.5
2017-Dec-07 11:14N 53°59' E 008°25'2 7.9
2017-Dec-07 10:56N 53°59' E 008°29'4 9.2
2017-Dec-07 10:28N 53°58' E 008°36'612.5
2017-Dec-07 10:00N 53°53' E 008°42'713.7
2017-Dec-07 09:30N 53°51' E 008°53'714.4
2017-Dec-07 09:00N 53°53' E 009°05'611.4
2017-Dec-07 08:30N 53°53' E 009°14'714.5
2017-Dec-07 08:01N 53°48' E 009°23'714.6
2017-Dec-07 07:30N 53°41' E 009°30'612.3
2017-Dec-07 07:00N 53°36' E 009°35'5 9.9
2017-Dec-07 06:30N 53°34' E 009°43'5 9.2
2017-Dec-07 06:00N 53°33' E 009°50'4 7.5
2017-Dec-07 05:30N 53°32' E 009°56'2 3.4
2017-Dec-07 05:00N 53°30' E 009°57'0 0.0
2017-Dec-07 04:30N 53°30' E 009°57'0 0.0
2017-Dec-07 04:00N 53°30' E 009°57'0 0.0
2017-Dec-07 03:30N 53°30' E 009°57'0 0.0
2017-Dec-07 03:00N 53°30' E 009°57'0 0.0
2017-Dec-07 02:30N 53°30' E 009°57'0 0.0
2017-Dec-07 02:00N 53°30' E 009°57'0 0.0
2017-Dec-07 01:30N 53°30' E 009°57'0 0.0
2017-Dec-07 01:00N 53°30' E 009°57'0 0.0
2017-Dec-07 00:31N 53°30' E 009°57'0 0.0
2017-Dec-07 00:00N 53°30' E 009°57'0 0.0
2017-Dec-06 23:30N 53°30' E 009°57'0 0.0
2017-Dec-06 23:00N 53°30' E 009°57'0 0.0
2017-Dec-06 22:30N 53°30' E 009°57'0 0.0
2017-Dec-06 22:00N 53°30' E 009°57'0 0.0
2017-Dec-06 21:30N 53°30' E 009°57'0 0.0
2017-Dec-06 21:01N 53°30' E 009°57'  
2017-Dec-03 22:14N 52°08' E 003°33'412.3
2017-Dec-03 21:57N 52°06' E 003°38'612.6
2017-Dec-03 21:31N 52°05' E 003°47'510.6
2017-Dec-03 21:01N 52°03' E 003°55'5 9.8
2017-Dec-03 20:30N 52°00' E 004°01'5 9.9
2017-Dec-03 20:00N 51°58' E 004°08'3 5.9
2017-Dec-03 19:30N 51°56' E 004°12'0 0.0
2017-Dec-03 19:01N 51°56' E 004°12'0 0.0
2017-Dec-03 18:30N 51°56' E 004°12'0 0.0
2017-Dec-03 17:58N 51°56' E 004°12'0 0.0
2017-Dec-03 17:30N 51°56' E 004°12'0 0.0
2017-Dec-03 17:00N 51°56' E 004°12'0 0.0
2017-Dec-03 16:30N 51°56' E 004°12'0 0.0
2017-Dec-03 16:00N 51°56' E 004°12'0 0.0
2017-Dec-03 15:30N 51°56' E 004°12'0 0.0
2017-Dec-03 15:00N 51°56' E 004°12'0 0.0
2017-Dec-03 14:30N 51°56' E 004°12'0 0.0
2017-Dec-03 14:00N 51°56' E 004°12'0 0.0
2017-Dec-03 13:30N 51°56' E 004°12'0 0.0
2017-Dec-03 13:00N 51°56' E 004°12'0 0.0
2017-Dec-03 12:30N 51°56' E 004°12'0 0.0
2017-Dec-03 12:00N 51°56' E 004°12'0 0.0
2017-Dec-03 11:30N 51°56' E 004°12'0 0.0
2017-Dec-03 11:00N 51°56' E 004°12'0 0.0
2017-Dec-03 10:30N 51°56' E 004°12'0 0.0
2017-Dec-03 10:00N 51°56' E 004°12'0 0.0
2017-Dec-03 09:30N 51°56' E 004°12'0 0.0
2017-Dec-03 08:58N 51°56' E 004°12'0 0.0
2017-Dec-03 08:30N 51°56' E 004°12'0 0.0
2017-Dec-03 08:00N 51°56' E 004°12'0 0.0
2017-Dec-03 07:30N 51°56' E 004°12'0 0.0
2017-Dec-03 06:57N 51°56' E 004°12'0 0.0
2017-Dec-03 06:30N 51°56' E 004°12'0 0.0
2017-Dec-03 06:00N 51°56' E 004°12'0 0.0
2017-Dec-03 05:30N 51°56' E 004°12'0 0.0
2017-Dec-03 05:00N 51°56' E 004°12'0 0.0
2017-Dec-03 04:30N 51°56' E 004°12'0 0.0
2017-Dec-03 04:00N 51°56' E 004°12'0 0.0
2017-Dec-03 03:30N 51°56' E 004°12'0 0.0
2017-Dec-03 03:00N 51°56' E 004°12'0 0.0
2017-Dec-03 02:30N 51°56' E 004°12'0 0.0
2017-Dec-03 02:00N 51°56' E 004°12'0 0.0
2017-Dec-03 01:30N 51°56' E 004°12'0 0.0
2017-Dec-03 01:00N 51°56' E 004°12'0 0.0
2017-Dec-03 00:30N 51°56' E 004°12'0 0.0
2017-Dec-03 00:00N 51°56' E 004°12'0 0.0
2017-Dec-02 23:30N 51°56' E 004°12'0 0.0
2017-Dec-02 23:00N 51°56' E 004°12'0 0.0
2017-Dec-02 22:30N 51°56' E 004°12'0 0.0
2017-Dec-02 22:00N 51°56' E 004°12'0 0.0
2017-Dec-02 21:30N 51°56' E 004°12'0 0.0
2017-Dec-02 21:00N 51°56' E 004°12'0 0.0
2017-Dec-02 20:30N 51°56' E 004°12'0 0.0
2017-Dec-02 20:00N 51°56' E 004°12'0 0.0
2017-Dec-02 19:30N 51°56' E 004°12'0 0.0
2017-Dec-02 19:00N 51°56' E 004°12'0 0.0
2017-Dec-02 18:30N 51°56' E 004°12'0 0.0
2017-Dec-02 18:00N 51°56' E 004°12'0 0.0
2017-Dec-02 17:30N 51°56' E 004°12'0 0.0
2017-Dec-02 17:00N 51°56' E 004°12'0 0.0
2017-Dec-02 16:30N 51°56' E 004°12'0 0.0
2017-Dec-02 16:00N 51°56' E 004°12'0 0.0
2017-Dec-02 15:30N 51°56' E 004°12'0 0.0
2017-Dec-02 15:00N 51°56' E 004°12'0 0.0
2017-Dec-02 14:30N 51°56' E 004°12'0 0.0
2017-Dec-02 14:00N 51°56' E 004°12'0 0.0
2017-Dec-02 13:30N 51°56' E 004°12'0 0.0
2017-Dec-02 13:00N 51°56' E 004°12'0 0.0
2017-Dec-02 12:30N 51°56' E 004°12'0 0.0
2017-Dec-02 12:00N 51°56' E 004°12'0 0.0
2017-Dec-02 11:30N 51°56' E 004°12'0 0.0
2017-Dec-02 11:00N 51°56' E 004°12'0 0.0
2017-Dec-02 10:30N 51°56' E 004°12'0 0.0
2017-Dec-02 10:00N 51°56' E 004°12'0 0.0
2017-Dec-02 09:30N 51°56' E 004°12'0 0.0
2017-Dec-02 09:00N 51°56' E 004°12'0 0.0
2017-Dec-02 08:30N 51°56' E 004°12'0 0.0
2017-Dec-02 08:00N 51°56' E 004°12'0 0.0
2017-Dec-02 07:30N 51°56' E 004°12'0 0.0
2017-Dec-02 07:00N 51°56' E 004°12'0 0.0
2017-Dec-02 06:30N 51°56' E 004°12'0 0.0
2017-Dec-02 06:00N 51°56' E 004°12'0 0.0
2017-Dec-02 05:30N 51°56' E 004°12'0 0.0
2017-Dec-02 05:00N 51°56' E 004°12'0 0.0
2017-Dec-02 04:30N 51°56' E 004°12'0 0.0
2017-Dec-02 04:00N 51°56' E 004°12'0 0.0
2017-Dec-02 03:30N 51°56' E 004°12'0 0.0
2017-Dec-02 03:00N 51°56' E 004°12'0 0.0
2017-Dec-02 02:30N 51°56' E 004°12'0 0.0
2017-Dec-02 01:53N 51°56' E 004°12'0 0.0
2017-Dec-02 01:26N 51°56' E 004°12'0 0.0
2017-Dec-02 00:56N 51°56' E 004°12'0 0.0
2017-Dec-02 00:26N 51°56' E 004°12'0 0.0
2017-Dec-01 23:59N 51°56' E 004°12'0 0.0
2017-Dec-01 23:29N 51°56' E 004°12'0 0.0
2017-Dec-01 23:00N 51°56' E 004°12'1 1.2
2017-Dec-01 22:30N 51°56' E 004°11'3 6.4
2017-Dec-01 22:00N 51°58' E 004°07'5 9.3
2017-Dec-01 21:30N 51°60' E 004°00'510.0
2017-Dec-01 21:00N 51°59' E 003°52'3 5.2
2017-Dec-01 20:30N 51°58' E 003°49'1 2.1
2017-Dec-01 20:00N 51°57' E 003°48'0 0.0
2017-Dec-01 19:30N 51°57' E 003°48'0 0.0
2017-Dec-01 19:00N 51°57' E 003°48'0 0.0
2017-Dec-01 18:30N 51°57' E 003°48'0 0.0
2017-Dec-01 18:00N 51°57' E 003°48'0 0.0
2017-Dec-01 17:30N 51°57' E 003°48'0 0.0
2017-Dec-01 17:00N 51°57' E 003°48'0 0.0
2017-Dec-01 16:30N 51°57' E 003°48'0 0.0
2017-Dec-01 16:00N 51°57' E 003°48'0 0.1
2017-Dec-01 15:30N 51°57' E 003°48'0 0.4
2017-Dec-01 15:00N 51°57' E 003°48'0 0.0
2017-Dec-01 14:30N 51°57' E 003°48'0 0.0
2017-Dec-01 14:00N 51°57' E 003°48'0 0.0
2017-Dec-01 13:30N 51°57' E 003°48'0 0.0
2017-Dec-01 13:00N 51°57' E 003°48'0 0.0
2017-Dec-01 12:30N 51°57' E 003°48'0 0.1
2017-Dec-01 12:00N 51°57' E 003°48'0 0.2
2017-Dec-01 11:30N 51°57' E 003°48'0 0.2
2017-Dec-01 11:00N 51°57' E 003°48'0 0.3
2017-Dec-01 10:30N 51°57' E 003°48'0 0.1
2017-Dec-01 09:59N 51°57' E 003°48'0 0.0
2017-Dec-01 09:11N 51°57' E 003°48'0 0.0
2017-Dec-01 08:41N 51°57' E 003°48'0 0.1
2017-Dec-01 08:29N 51°57' E 003°48'0 0.0
2017-Dec-01 07:56N 51°57' E 003°48'0 0.1
2017-Dec-01 07:29N 51°57' E 003°48'0 0.0
2017-Dec-01 06:56N 51°57' E 003°48'0 0.1
2017-Dec-01 06:29N 51°57' E 003°48'0 0.1
2017-Dec-01 05:59N 51°57' E 003°48'0 0.1
2017-Dec-01 05:29N 51°57' E 003°48'0 0.0
2017-Dec-01 04:59N 51°57' E 003°48'0 0.0
2017-Dec-01 04:23N 51°57' E 003°48'0 0.0
2017-Dec-01 03:56N 51°57' E 003°48'0 0.1
2017-Dec-01 03:20N 51°57' E 003°48'0 0.2
2017-Dec-01 02:56N 51°57' E 003°48'0 0.2
2017-Dec-01 02:30N 51°57' E 003°48'0 0.0
2017-Dec-01 02:00N 51°57' E 003°48'0 0.0
2017-Dec-01 01:30N 51°57' E 003°48'0 0.0
2017-Dec-01 01:00N 51°57' E 003°48'0 0.0
2017-Dec-01 00:31N 51°57' E 003°48'0 0.0
2017-Dec-01 00:00N 51°57' E 003°48'  
Track history (hours):
 
Tides and Currents Weather Stations Pressure Air Temp Water Temp Dewpoint Dewpoint Depression Visibility Wind Speed Wind Dir Waves Ship Positions

Elisalex Schulte

Last reported at 2017-Dec-10 23:56 UTC. Time now 2017-Dec-11 00:24 UTC.
Position N 53°29' W 003°27'.

Length 144 m; draft 7.7 m.

Type: Tanker. MMSI: 563052000.

Date/timePositionNaut miles runAvg speedWind from/ knotsBaromVisibWave heightAir tempDewpointWater temp
2017-Dec-10 23:56N 53°29' W 003°27'0 0.0
2017-Dec-10 23:26N 53°29' W 003°27'0 0.0
2017-Dec-10 22:59N 53°29' W 003°27'0 0.0
2017-Dec-10 22:29N 53°29' W 003°27'0 0.0
2017-Dec-10 21:59N 53°29' W 003°27'2 3.6
2017-Dec-10 21:30N 53°30' W 003°30'3 6.1
2017-Dec-10 21:00N 53°31' W 003°35'3 5.5
2017-Dec-10 20:30N 53°31' W 003°40'4 8.4
2017-Dec-10 20:00N 53°31' W 003°47'611.1
2017-Dec-10 19:29N 53°30' W 003°56'217 8.1
2017-Dec-09 16:48N 49°54' W 004°13'1913.2
2017-Dec-09 15:23N 49°56' W 003°45'613.2
2017-Dec-09 14:56N 49°56' W 003°36'712.8
2017-Dec-09 14:23N 49°58' W 003°25'512.3
2017-Dec-09 13:56N 49°58' W 003°16'612.5
2017-Dec-09 13:29N 49°59' W 003°07'611.7
2017-Dec-09 13:00N 49°60' W 002°59'611.2
2017-Dec-09 12:30N 50°01' W 002°50'610.7
2017-Dec-09 11:59N 50°02' W 002°42'810.3
2017-Dec-09 11:15N 50°05' W 002°31'410.3
2017-Dec-09 10:51N 50°06' W 002°24'610.5
2017-Dec-09 10:14N 50°07' W 002°15'9113.4
2017-Dec-09 03:27N 50°32' E 000°02'1111.8
2017-Dec-09 02:31N 50°34' E 000°19'311.3
2017-Dec-09 02:15N 50°35' E 000°23'311.0
2017-Dec-09 02:01N 50°36' E 000°27'511.0
2017-Dec-09 01:31N 50°37' E 000°36'611.2
2017-Dec-09 01:01N 50°41' E 000°43'611.7
2017-Dec-09 00:30N 50°45' E 000°50'612.2
2017-Dec-09 00:01N 50°48' E 000°57'813.3
2017-Dec-08 23:25N 50°53' E 001°07'614.2
2017-Dec-08 23:00N 50°57' E 001°14'815.0
2017-Dec-08 22:30N 51°02' E 001°23'815.6
2017-Dec-08 22:00N 51°07' E 001°33'815.0
2017-Dec-08 21:30N 51°12' E 001°42'713.9
2017-Dec-08 21:00N 51°17' E 001°49'713.1
2017-Dec-08 20:30N 51°23' E 001°54'612.2
2017-Dec-08 20:00N 51°28' E 001°60'611.5
2017-Dec-08 19:30N 51°32' E 002°06'510.9
2017-Dec-08 19:00N 51°36' E 002°12'9211.2
2017-Dec-08 10:47N 52°59' E 003°17'312.3
2017-Dec-08 10:30N 53°02' E 003°19'612.1
2017-Dec-08 09:59N 53°08' E 003°22'611.8
2017-Dec-08 09:30N 53°14' E 003°25'4010.9
2017-Dec-08 05:52N 53°49' E 003°54'1210.9
2017-Dec-08 04:43N 53°57' E 004°11'211.1
2017-Dec-08 04:30N 53°58' E 004°15'611.0
2017-Dec-08 03:59N 54°01' E 004°22'8 9.4
2017-Dec-08 03:06N 54°03' E 004°36'134 8.5
2017-Dec-07 11:14N 53°59' E 008°25'2 7.9
2017-Dec-07 10:56N 53°59' E 008°29'4 9.2
2017-Dec-07 10:28N 53°58' E 008°36'612.5
2017-Dec-07 10:00N 53°53' E 008°42'713.7
2017-Dec-07 09:30N 53°51' E 008°53'714.4
2017-Dec-07 09:00N 53°53' E 009°05'611.4
2017-Dec-07 08:30N 53°53' E 009°14'714.5
2017-Dec-07 08:01N 53°48' E 009°23'714.6
2017-Dec-07 07:30N 53°41' E 009°30'612.3
2017-Dec-07 07:00N 53°36' E 009°35'5 9.9
2017-Dec-07 06:30N 53°34' E 009°43'5 9.2
2017-Dec-07 06:00N 53°33' E 009°50'4 7.5
2017-Dec-07 05:30N 53°32' E 009°56'2 3.4
2017-Dec-07 05:00N 53°30' E 009°57'0 0.0
2017-Dec-07 04:30N 53°30' E 009°57'0 0.0
2017-Dec-07 04:00N 53°30' E 009°57'0 0.0
2017-Dec-07 03:30N 53°30' E 009°57'0 0.0
2017-Dec-07 03:00N 53°30' E 009°57'0 0.0
2017-Dec-07 02:30N 53°30' E 009°57'0 0.0
2017-Dec-07 02:00N 53°30' E 009°57'0 0.0
2017-Dec-07 01:30N 53°30' E 009°57'0 0.0
2017-Dec-07 01:00N 53°30' E 009°57'0 0.0
2017-Dec-07 00:31N 53°30' E 009°57'0 0.0
2017-Dec-07 00:00N 53°30' E 009°57'0 0.0
2017-Dec-06 23:30N 53°30' E 009°57'0 0.0
2017-Dec-06 23:00N 53°30' E 009°57'0 0.0
2017-Dec-06 22:30N 53°30' E 009°57'0 0.0
2017-Dec-06 22:00N 53°30' E 009°57'0 0.0
2017-Dec-06 21:30N 53°30' E 009°57'0 0.0
2017-Dec-06 21:01N 53°30' E 009°57'  
2017-Dec-03 22:14N 52°08' E 003°33'412.3
2017-Dec-03 21:57N 52°06' E 003°38'612.6
2017-Dec-03 21:31N 52°05' E 003°47'510.6
2017-Dec-03 21:01N 52°03' E 003°55'5 9.8
2017-Dec-03 20:30N 52°00' E 004°01'5 9.9
2017-Dec-03 20:00N 51°58' E 004°08'3 5.9
2017-Dec-03 19:30N 51°56' E 004°12'0 0.0
2017-Dec-03 19:01N 51°56' E 004°12'0 0.0
2017-Dec-03 18:30N 51°56' E 004°12'0 0.0
2017-Dec-03 17:58N 51°56' E 004°12'0 0.0
2017-Dec-03 17:30N 51°56' E 004°12'0 0.0
2017-Dec-03 17:00N 51°56' E 004°12'0 0.0
2017-Dec-03 16:30N 51°56' E 004°12'0 0.0
2017-Dec-03 16:00N 51°56' E 004°12'0 0.0
2017-Dec-03 15:30N 51°56' E 004°12'0 0.0
2017-Dec-03 15:00N 51°56' E 004°12'0 0.0
2017-Dec-03 14:30N 51°56' E 004°12'0 0.0
2017-Dec-03 14:00N 51°56' E 004°12'0 0.0
2017-Dec-03 13:30N 51°56' E 004°12'0 0.0
2017-Dec-03 13:00N 51°56' E 004°12'0 0.0
2017-Dec-03 12:30N 51°56' E 004°12'0 0.0
2017-Dec-03 12:00N 51°56' E 004°12'0 0.0
2017-Dec-03 11:30N 51°56' E 004°12'0 0.0
2017-Dec-03 11:00N 51°56' E 004°12'0 0.0
2017-Dec-03 10:30N 51°56' E 004°12'0 0.0
2017-Dec-03 10:00N 51°56' E 004°12'0 0.0
2017-Dec-03 09:30N 51°56' E 004°12'0 0.0
2017-Dec-03 08:58N 51°56' E 004°12'0 0.0
2017-Dec-03 08:30N 51°56' E 004°12'0 0.0
2017-Dec-03 08:00N 51°56' E 004°12'0 0.0
2017-Dec-03 07:30N 51°56' E 004°12'0 0.0
2017-Dec-03 06:57N 51°56' E 004°12'0 0.0
2017-Dec-03 06:30N 51°56' E 004°12'0 0.0
2017-Dec-03 06:00N 51°56' E 004°12'0 0.0
2017-Dec-03 05:30N 51°56' E 004°12'0 0.0
2017-Dec-03 05:00N 51°56' E 004°12'0 0.0
2017-Dec-03 04:30N 51°56' E 004°12'0 0.0
2017-Dec-03 04:00N 51°56' E 004°12'0 0.0
2017-Dec-03 03:30N 51°56' E 004°12'0 0.0
2017-Dec-03 03:00N 51°56' E 004°12'0 0.0
2017-Dec-03 02:30N 51°56' E 004°12'0 0.0
2017-Dec-03 02:00N 51°56' E 004°12'0 0.0
2017-Dec-03 01:30N 51°56' E 004°12'0 0.0
2017-Dec-03 01:00N 51°56' E 004°12'0 0.0
2017-Dec-03 00:30N 51°56' E 004°12'0 0.0
2017-Dec-03 00:00N 51°56' E 004°12'0 0.0
2017-Dec-02 23:30N 51°56' E 004°12'0 0.0
2017-Dec-02 23:00N 51°56' E 004°12'0 0.0
2017-Dec-02 22:30N 51°56' E 004°12'0 0.0
2017-Dec-02 22:00N 51°56' E 004°12'0 0.0
2017-Dec-02 21:30N 51°56' E 004°12'0 0.0
2017-Dec-02 21:00N 51°56' E 004°12'0 0.0
2017-Dec-02 20:30N 51°56' E 004°12'0 0.0
2017-Dec-02 20:00N 51°56' E 004°12'0 0.0
2017-Dec-02 19:30N 51°56' E 004°12'0 0.0
2017-Dec-02 19:00N 51°56' E 004°12'0 0.0
2017-Dec-02 18:30N 51°56' E 004°12'0 0.0
2017-Dec-02 18:00N 51°56' E 004°12'0 0.0
2017-Dec-02 17:30N 51°56' E 004°12'0 0.0
2017-Dec-02 17:00N 51°56' E 004°12'0 0.0
2017-Dec-02 16:30N 51°56' E 004°12'0 0.0
2017-Dec-02 16:00N 51°56' E 004°12'0 0.0
2017-Dec-02 15:30N 51°56' E 004°12'0 0.0
2017-Dec-02 15:00N 51°56' E 004°12'0 0.0
2017-Dec-02 14:30N 51°56' E 004°12'0 0.0
2017-Dec-02 14:00N 51°56' E 004°12'0 0.0
2017-Dec-02 13:30N 51°56' E 004°12'0 0.0
2017-Dec-02 13:00N 51°56' E 004°12'0 0.0
2017-Dec-02 12:30N 51°56' E 004°12'0 0.0
2017-Dec-02 12:00N 51°56' E 004°12'0 0.0
2017-Dec-02 11:30N 51°56' E 004°12'0 0.0
2017-Dec-02 11:00N 51°56' E 004°12'0 0.0
2017-Dec-02 10:30N 51°56' E 004°12'0 0.0
2017-Dec-02 10:00N 51°56' E 004°12'0 0.0
2017-Dec-02 09:30N 51°56' E 004°12'0 0.0
2017-Dec-02 09:00N 51°56' E 004°12'0 0.0
2017-Dec-02 08:30N 51°56' E 004°12'0 0.0
2017-Dec-02 08:00N 51°56' E 004°12'0 0.0
2017-Dec-02 07:30N 51°56' E 004°12'0 0.0
2017-Dec-02 07:00N 51°56' E 004°12'0 0.0
2017-Dec-02 06:30N 51°56' E 004°12'0 0.0
2017-Dec-02 06:00N 51°56' E 004°12'0 0.0
2017-Dec-02 05:30N 51°56' E 004°12'0 0.0
2017-Dec-02 05:00N 51°56' E 004°12'0 0.0
2017-Dec-02 04:30N 51°56' E 004°12'0 0.0
2017-Dec-02 04:00N 51°56' E 004°12'0 0.0
2017-Dec-02 03:30N 51°56' E 004°12'0 0.0
2017-Dec-02 03:00N 51°56' E 004°12'0 0.0
2017-Dec-02 02:30N 51°56' E 004°12'0 0.0
2017-Dec-02 01:53N 51°56' E 004°12'0 0.0
2017-Dec-02 01:26N 51°56' E 004°12'0 0.0
2017-Dec-02 00:56N 51°56' E 004°12'0 0.0
2017-Dec-02 00:26N 51°56' E 004°12'0 0.0
2017-Dec-01 23:59N 51°56' E 004°12'0 0.0
2017-Dec-01 23:29N 51°56' E 004°12'0 0.0
2017-Dec-01 23:00N 51°56' E 004°12'1 1.2
2017-Dec-01 22:30N 51°56' E 004°11'3 6.4
2017-Dec-01 22:00N 51°58' E 004°07'5 9.3
2017-Dec-01 21:30N 51°60' E 004°00'510.0
2017-Dec-01 21:00N 51°59' E 003°52'3 5.2
2017-Dec-01 20:30N 51°58' E 003°49'1 2.1
2017-Dec-01 20:00N 51°57' E 003°48'0 0.0
2017-Dec-01 19:30N 51°57' E 003°48'0 0.0
2017-Dec-01 19:00N 51°57' E 003°48'0 0.0
2017-Dec-01 18:30N 51°57' E 003°48'0 0.0
2017-Dec-01 18:00N 51°57' E 003°48'0 0.0
2017-Dec-01 17:30N 51°57' E 003°48'0 0.0
2017-Dec-01 17:00N 51°57' E 003°48'0 0.0
2017-Dec-01 16:30N 51°57' E 003°48'0 0.0
2017-Dec-01 16:00N 51°57' E 003°48'0 0.1
2017-Dec-01 15:30N 51°57' E 003°48'0 0.4
2017-Dec-01 15:00N 51°57' E 003°48'0 0.0
2017-Dec-01 14:30N 51°57' E 003°48'0 0.0
2017-Dec-01 14:00N 51°57' E 003°48'0 0.0
2017-Dec-01 13:30N 51°57' E 003°48'0 0.0
2017-Dec-01 13:00N 51°57' E 003°48'0 0.0
2017-Dec-01 12:30N 51°57' E 003°48'0 0.1
2017-Dec-01 12:00N 51°57' E 003°48'0 0.2
2017-Dec-01 11:30N 51°57' E 003°48'0 0.2
2017-Dec-01 11:00N 51°57' E 003°48'0 0.3
2017-Dec-01 10:30N 51°57' E 003°48'0 0.1
2017-Dec-01 09:59N 51°57' E 003°48'0 0.0
2017-Dec-01 09:11N 51°57' E 003°48'0 0.0
2017-Dec-01 08:41N 51°57' E 003°48'0 0.1
2017-Dec-01 08:29N 51°57' E 003°48'0 0.0
2017-Dec-01 07:56N 51°57' E 003°48'0 0.1
2017-Dec-01 07:29N 51°57' E 003°48'0 0.0
2017-Dec-01 06:56N 51°57' E 003°48'0 0.1
2017-Dec-01 06:29N 51°57' E 003°48'0 0.1
2017-Dec-01 05:59N 51°57' E 003°48'0 0.1
2017-Dec-01 05:29N 51°57' E 003°48'0 0.0
2017-Dec-01 04:59N 51°57' E 003°48'0 0.0
2017-Dec-01 04:23N 51°57' E 003°48'0 0.0
2017-Dec-01 03:56N 51°57' E 003°48'0 0.1
2017-Dec-01 03:20N 51°57' E 003°48'0 0.2
2017-Dec-01 02:56N 51°57' E 003°48'0 0.2
2017-Dec-01 02:30N 51°57' E 003°48'0 0.0
2017-Dec-01 02:00N 51°57' E 003°48'0 0.0
2017-Dec-01 01:30N 51°57' E 003°48'0 0.0
2017-Dec-01 01:00N 51°57' E 003°48'0 0.0
2017-Dec-01 00:31N 51°57' E 003°48'0 0.0
2017-Dec-01 00:00N 51°57' E 003°48'  

Dump ship's entire track history